createdAt,value
2016-04-07T00:00:01.401Z,0
2016-04-07T00:01:01.433Z,0
2016-04-07T00:02:01.467Z,0
2016-04-07T00:03:01.502Z,0
2016-04-07T00:04:01.536Z,0
2016-04-07T00:05:01.569Z,0
2016-04-07T00:06:01.588Z,0
2016-04-07T00:07:01.638Z,0
2016-04-07T00:08:01.672Z,0
2016-04-07T00:09:01.721Z,0
2016-04-07T00:10:01.724Z,0
2016-04-07T00:11:01.617Z,0
2016-04-07T00:12:01.808Z,0
2016-04-07T00:13:01.825Z,0
2016-04-07T00:14:01.875Z,0
2016-04-07T00:15:01.893Z,0
2016-04-07T00:16:01.951Z,0
2016-04-07T00:17:02.029Z,0
2016-04-07T00:18:02.108Z,0
2016-04-07T00:19:02.186Z,0
2016-04-07T00:20:02.264Z,0
2016-04-07T00:21:02.326Z,0
2016-04-07T00:22:02.377Z,0
2016-04-07T00:23:02.426Z,0
2016-04-07T00:24:02.475Z,0
2016-04-07T00:25:02.525Z,0
2016-04-07T00:26:02.570Z,0
2016-04-07T00:27:02.593Z,0
2016-04-07T00:28:02.633Z,0
2016-04-07T00:29:02.674Z,0
2016-04-07T00:30:02.728Z,0
2016-04-07T00:31:02.750Z,0
2016-04-07T00:32:02.787Z,0
2016-04-07T00:33:02.822Z,0
2016-04-07T00:34:02.857Z,0
2016-04-07T00:35:02.893Z,0
2016-04-07T00:36:02.944Z,0
2016-04-07T00:37:02.964Z,0
2016-04-07T00:38:02.998Z,0
2016-04-07T00:39:03.065Z,0
2016-04-07T00:40:03.068Z,0
2016-04-07T00:41:03.087Z,0
2016-04-07T00:42:03.136Z,0
2016-04-07T00:43:03.171Z,0
2016-04-07T00:44:03.221Z,0
2016-04-07T00:45:03.223Z,0
2016-04-07T00:46:03.274Z,0
2016-04-07T00:47:03.292Z,0
2016-04-07T00:48:03.341Z,0
2016-04-07T00:49:03.359Z,0
2016-04-07T00:50:03.393Z,0
2016-04-07T00:51:03.428Z,0
2016-04-07T00:52:03.461Z,0
2016-04-07T00:53:03.495Z,0
2016-04-07T00:54:03.514Z,0
2016-04-07T00:55:03.564Z,0
2016-04-07T00:56:03.581Z,0
2016-04-07T00:57:03.616Z,0
2016-04-07T00:58:03.634Z,0
2016-04-07T00:59:03.667Z,0
2016-04-07T01:00:03.717Z,0
2016-04-07T01:01:03.736Z,0
2016-04-07T01:02:03.786Z,0
2016-04-07T01:03:03.819Z,0
2016-04-07T01:04:03.838Z,0
2016-04-07T01:05:03.903Z,0
2016-04-07T01:06:03.937Z,0
2016-04-07T01:07:03.955Z,0
2016-04-07T01:08:03.989Z,0
2016-04-07T01:09:04.008Z,0
2016-04-07T01:10:04.057Z,0
2016-04-07T01:11:04.075Z,0
2016-04-07T01:12:03.953Z,0
2016-04-07T01:13:04.127Z,0
2016-04-07T01:14:04.193Z,0
2016-04-07T01:15:04.211Z,0
2016-04-07T01:16:04.229Z,0
2016-04-07T01:17:04.278Z,0
2016-04-07T01:18:04.312Z,0
2016-04-07T01:19:04.346Z,0
2016-04-07T01:20:04.365Z,0
2016-04-07T01:21:04.399Z,0
2016-04-07T01:22:04.433Z,0
2016-04-07T01:23:04.467Z,0
2016-04-07T01:24:04.500Z,0
2016-04-07T01:25:04.534Z,0
2016-04-07T01:26:04.584Z,0
2016-04-07T01:27:04.603Z,0
2016-04-07T01:28:04.620Z,0
2016-04-07T01:29:04.639Z,0
2016-04-07T01:30:04.689Z,0
2016-04-07T01:31:04.738Z,0
2016-04-07T01:32:04.756Z,0
2016-04-07T01:33:04.791Z,0
2016-04-07T01:34:04.824Z,0
2016-04-07T01:35:04.858Z,0
2016-04-07T01:36:04.892Z,0
2016-04-07T01:37:04.911Z,0
2016-04-07T01:38:04.961Z,0
2016-04-07T01:39:04.994Z,0
2016-04-07T01:40:05.044Z,0
2016-04-07T01:41:05.046Z,0
2016-04-07T01:42:05.096Z,0
2016-04-07T01:43:05.115Z,0
2016-04-07T01:44:05.149Z,0
2016-04-07T01:45:05.182Z,0
2016-04-07T01:46:05.201Z,0
2016-04-07T01:47:05.234Z,0
2016-04-07T01:48:05.284Z,0
2016-04-07T01:49:05.302Z,0
2016-04-07T01:50:05.337Z,0
2016-04-07T01:51:05.370Z,0
2016-04-07T01:52:05.404Z,0
2016-04-07T01:53:05.454Z,0
2016-04-07T01:54:05.487Z,0
2016-04-07T01:55:05.522Z,0
2016-04-07T01:56:05.540Z,0
2016-04-07T01:57:05.573Z,0
2016-04-07T01:58:05.608Z,0
2016-04-07T01:59:05.641Z,0
2016-04-07T02:00:05.660Z,0
2016-04-07T02:01:05.678Z,0
2016-04-07T02:02:05.712Z,0
2016-04-07T02:03:05.761Z,0
2016-04-07T02:04:05.811Z,0
2016-04-07T02:05:05.830Z,0
2016-04-07T02:06:05.863Z,0
2016-04-07T02:07:05.882Z,0
2016-04-07T02:08:05.916Z,0
2016-04-07T02:09:05.966Z,0
2016-04-07T02:10:06.000Z,0
2016-04-07T02:11:06.033Z,0
2016-04-07T02:12:06.051Z,0
2016-04-07T02:13:06.086Z,0
2016-04-07T02:14:06.119Z,0
2016-04-07T02:15:06.154Z,0
2016-04-07T02:16:06.204Z,0
2016-04-07T02:17:06.221Z,0
2016-04-07T02:18:06.287Z,0
2016-04-07T02:19:06.274Z,0
2016-04-07T02:20:06.323Z,0
2016-04-07T02:21:06.342Z,0
2016-04-07T02:22:06.376Z,0
2016-04-07T02:23:06.425Z,0
2016-04-07T02:24:06.443Z,0
2016-04-07T02:25:06.493Z,0
2016-04-07T02:26:06.512Z,0
2016-04-07T02:27:06.545Z,0
2016-04-07T02:28:06.579Z,0
2016-04-07T02:29:06.614Z,0
2016-04-07T02:30:06.648Z,0
2016-04-07T02:31:06.665Z,0
2016-04-07T02:32:06.699Z,0
2016-04-07T02:33:06.764Z,0
2016-04-07T02:34:06.783Z,0
2016-04-07T02:35:06.801Z,0
2016-04-07T02:36:06.851Z,0
2016-04-07T02:37:06.869Z,0
2016-04-07T02:38:06.918Z,0
2016-04-07T02:39:06.936Z,0
2016-04-07T02:40:06.971Z,0
2016-04-07T02:41:07.004Z,0
2016-04-07T02:42:07.038Z,0
2016-04-07T02:43:07.088Z,0
2016-04-07T02:44:07.091Z,0
2016-04-07T02:45:07.124Z,0
2016-04-07T02:46:07.018Z,0
2016-04-07T02:47:07.193Z,0
2016-04-07T02:48:07.227Z,0
2016-04-07T02:49:07.260Z,0
2016-04-07T02:50:07.295Z,0
2016-04-07T02:51:07.313Z,0
2016-04-07T02:52:07.362Z,0
2016-04-07T02:53:07.396Z,0
2016-04-07T02:54:07.446Z,0
2016-04-07T02:55:07.480Z,0
2016-04-07T02:56:07.482Z,0
2016-04-07T02:57:07.517Z,0
2016-04-07T02:58:07.550Z,0
2016-04-07T02:59:07.584Z,0
2016-04-07T03:00:07.603Z,0
2016-04-07T03:01:07.653Z,0
2016-04-07T03:02:07.702Z,0
2016-04-07T03:03:07.564Z,0
2016-04-07T03:04:07.754Z,0
2016-04-07T03:05:07.773Z,0
2016-04-07T03:06:07.806Z,0
2016-04-07T03:07:07.841Z,0
2016-04-07T03:08:07.875Z,0
2016-04-07T03:09:07.908Z,0
2016-04-07T03:10:07.942Z,0
2016-04-07T03:11:07.977Z,0
2016-04-07T03:12:07.995Z,0
2016-04-07T03:13:08.027Z,0
2016-04-07T03:14:08.093Z,0
2016-04-07T03:15:08.096Z,0
2016-04-07T03:16:08.130Z,0
2016-04-07T03:17:08.179Z,0
2016-04-07T03:18:08.198Z,0
2016-04-07T03:19:08.231Z,0
2016-04-07T03:20:08.297Z,0
2016-04-07T03:21:08.299Z,0
2016-04-07T03:22:08.318Z,0
2016-04-07T03:23:08.367Z,0
2016-04-07T03:24:08.401Z,0
2016-04-07T03:25:08.279Z,0
2016-04-07T03:26:08.470Z,0
2016-04-07T03:27:08.487Z,0
2016-04-07T03:28:08.537Z,0
2016-04-07T03:29:08.556Z,0
2016-04-07T03:30:08.589Z,0
2016-04-07T03:31:08.623Z,0
2016-04-07T03:32:08.673Z,0
2016-04-07T03:33:08.707Z,0
2016-04-07T03:34:08.725Z,0
2016-04-07T03:35:08.619Z,0
2016-04-07T03:36:08.794Z,0
2016-04-07T03:37:08.828Z,0
2016-04-07T03:38:08.845Z,0
2016-04-07T03:39:08.880Z,0
2016-04-07T03:40:08.914Z,0
2016-04-07T03:41:08.947Z,0
2016-04-07T03:42:08.997Z,0
2016-04-07T03:43:09.046Z,0
2016-04-07T03:44:09.050Z,0
2016-04-07T03:45:09.083Z,0
2016-04-07T03:46:09.117Z,0
2016-04-07T03:47:09.152Z,0
2016-04-07T03:48:09.184Z,0
2016-04-07T03:49:09.218Z,0
2016-04-07T03:50:09.237Z,0
2016-04-07T03:51:09.271Z,0
2016-04-07T03:52:09.304Z,0
2016-04-07T03:53:09.340Z,0
2016-04-07T03:54:09.374Z,0
2016-04-07T03:55:09.423Z,0
2016-04-07T03:56:09.425Z,0
2016-04-07T03:57:09.475Z,0
2016-04-07T03:58:09.493Z,0
2016-04-07T03:59:09.542Z,0
2016-04-07T04:00:09.576Z,0
2016-04-07T04:01:09.595Z,0
2016-04-07T04:02:09.628Z,0
2016-04-07T04:03:09.662Z,0
2016-04-07T04:04:09.697Z,0
2016-04-07T04:05:09.747Z,0
2016-04-07T04:06:09.749Z,0
2016-04-07T04:07:09.783Z,0
2016-04-07T04:08:09.817Z,0
2016-04-07T04:09:09.898Z,0
2016-04-07T04:10:09.900Z,0
2016-04-07T04:11:09.934Z,0
2016-04-07T04:12:09.969Z,0
2016-04-07T04:13:09.986Z,0
2016-04-07T04:14:10.021Z,0
2016-04-07T04:15:09.899Z,0
2016-04-07T04:16:10.072Z,0
2016-04-07T04:17:10.122Z,0
2016-04-07T04:18:10.157Z,4
2016-04-07T04:19:10.191Z,0
2016-04-07T04:20:10.208Z,0
2016-04-07T04:21:10.258Z,4
2016-04-07T04:22:10.277Z,4
2016-04-07T04:23:10.310Z,4
2016-04-07T04:24:10.501Z,4
2016-04-07T04:25:10.394Z,4
2016-04-07T04:26:10.412Z,4
2016-04-07T04:27:10.446Z,8
2016-04-07T04:28:10.480Z,8
2016-04-07T04:29:10.515Z,12
2016-04-07T04:30:10.547Z,12
2016-04-07T04:31:10.566Z,12
2016-04-07T04:32:10.600Z,16
2016-04-07T04:33:10.650Z,16
2016-04-07T04:34:10.684Z,20
2016-04-07T04:35:10.702Z,24
2016-04-07T04:36:10.720Z,32
2016-04-07T04:37:10.753Z,36
2016-04-07T04:38:10.788Z,40
2016-04-07T04:39:10.931Z,44
2016-04-07T04:40:10.856Z,48
2016-04-07T04:41:10.906Z,56
2016-04-07T04:42:10.924Z,60
2016-04-07T04:43:10.957Z,68
2016-04-07T04:44:10.991Z,76
2016-04-07T04:45:11.025Z,84
2016-04-07T04:46:11.075Z,96
2016-04-07T04:47:11.077Z,104
2016-04-07T04:48:11.112Z,116
2016-04-07T04:49:10.990Z,124
2016-04-07T04:50:11.180Z,140
2016-04-07T04:51:11.213Z,148
2016-04-07T04:52:11.232Z,160
2016-04-07T04:53:11.282Z,180
2016-04-07T04:54:11.457Z,196
2016-04-07T04:55:11.349Z,208
2016-04-07T04:56:11.384Z,228
2016-04-07T04:57:11.402Z,248
2016-04-07T04:58:11.435Z,268
2016-04-07T04:59:11.485Z,284
2016-04-07T05:00:11.503Z,300
2016-04-07T05:01:11.553Z,324
2016-04-07T05:02:11.587Z,340
2016-04-07T05:03:11.590Z,352
2016-04-07T05:04:11.623Z,384
2016-04-07T05:05:11.673Z,412
2016-04-07T05:06:11.692Z,452
2016-04-07T05:07:11.742Z,484
2016-04-07T05:08:11.744Z,520
2016-04-07T05:09:11.856Z,520
2016-04-07T05:10:11.671Z,568
2016-04-07T05:11:11.861Z,612
2016-04-07T05:12:11.895Z,596
2016-04-07T05:13:11.929Z,604
2016-04-07T05:14:11.964Z,596
2016-04-07T05:15:11.997Z,656
2016-04-07T05:16:12.047Z,688
2016-04-07T05:17:12.049Z,736
2016-04-07T05:18:12.114Z,772
2016-04-07T05:19:12.117Z,836
2016-04-07T05:20:12.166Z,908
2016-04-07T05:21:12.169Z,1000
2016-04-07T05:22:12.219Z,972
2016-04-07T05:23:12.252Z,1044
2016-04-07T05:24:12.193Z,1164
2016-04-07T05:25:12.304Z,1148
2016-04-07T05:26:12.354Z,1100
2016-04-07T05:27:12.373Z,1136
2016-04-07T05:28:12.407Z,1148
2016-04-07T05:29:12.441Z,1264
2016-04-07T05:30:12.490Z,1372
2016-04-07T05:31:12.493Z,1412
2016-04-07T05:32:12.526Z,1456
2016-04-07T05:33:12.576Z,1492
2016-04-07T05:34:12.595Z,1520
2016-04-07T05:35:12.645Z,1576
2016-04-07T05:36:12.678Z,1680
2016-04-07T05:37:12.712Z,1768
2016-04-07T05:38:12.747Z,1844
2016-04-07T05:39:12.828Z,1904
2016-04-07T05:40:12.798Z,1932
2016-04-07T05:41:12.848Z,2008
2016-04-07T05:42:12.866Z,2168
2016-04-07T05:43:12.900Z,2216
2016-04-07T05:44:12.934Z,2292
2016-04-07T05:45:12.234Z,2680
2016-04-07T05:46:13.002Z,2908
2016-04-07T05:47:13.021Z,2652
2016-04-07T05:48:13.070Z,2552
2016-04-07T05:49:13.105Z,2532
2016-04-07T05:50:13.138Z,2196
2016-04-07T05:51:13.157Z,2500
2016-04-07T05:52:13.206Z,1988
2016-04-07T05:53:13.240Z,2540
2016-04-07T05:54:13.493Z,2696
2016-04-07T05:55:13.293Z,2884
2016-04-07T05:56:13.327Z,3040
2016-04-07T05:57:13.376Z,2396
2016-04-07T05:58:13.393Z,2200
2016-04-07T05:59:13.412Z,2080
2016-04-07T06:00:13.477Z,1876
2016-04-07T06:01:13.495Z,1976
2016-04-07T06:02:13.529Z,2296
2016-04-07T06:03:13.564Z,1464
2016-04-07T06:04:13.598Z,1332
2016-04-07T06:05:13.631Z,1116
2016-04-07T06:06:13.665Z,1104
2016-04-07T06:07:13.699Z,1236
2016-04-07T06:08:13.717Z,1256
2016-04-07T06:09:13.678Z,1480
2016-04-07T06:10:13.806Z,2568
2016-04-07T06:11:13.825Z,2652
2016-04-07T06:12:13.858Z,2308
2016-04-07T06:13:13.908Z,1984
2016-04-07T06:14:13.911Z,1596
2016-04-07T06:15:13.944Z,1724
2016-04-07T06:16:13.994Z,1688
2016-04-07T06:17:14.013Z,1688
2016-04-07T06:18:14.062Z,1304
2016-04-07T06:19:14.096Z,1424
2016-04-07T06:20:14.114Z,1332
2016-04-07T06:21:14.149Z,1560
2016-04-07T06:22:14.182Z,1620
2016-04-07T06:23:14.216Z,2180
2016-04-07T06:24:14.328Z,2120
2016-04-07T06:25:14.284Z,2636
2016-04-07T06:26:14.317Z,2448
2016-04-07T06:27:14.351Z,2692
2016-04-07T06:28:14.370Z,2232
2016-04-07T06:29:14.404Z,2592
2016-04-07T06:30:14.437Z,2012
2016-04-07T06:31:14.487Z,2028
2016-04-07T06:32:14.506Z,1832
2016-04-07T06:33:14.539Z,1372
2016-04-07T06:34:14.589Z,1768
2016-04-07T06:35:14.608Z,2320
2016-04-07T06:36:14.657Z,1976
2016-04-07T06:37:14.675Z,1228
2016-04-07T06:38:14.584Z,1084
2016-04-07T06:39:14.852Z,1316
2016-04-07T06:40:14.778Z,1676
2016-04-07T06:41:14.811Z,1360
2016-04-07T06:42:14.830Z,1536
2016-04-07T06:43:14.864Z,1516
2016-04-07T06:44:14.914Z,1432
2016-04-07T06:45:14.947Z,1492
2016-04-07T06:46:14.980Z,2088
2016-04-07T06:47:15.030Z,2472
2016-04-07T06:48:15.033Z,1488
2016-04-07T06:49:15.067Z,1572
2016-04-07T06:50:15.117Z,1548
2016-04-07T06:51:15.151Z,2288
2016-04-07T06:52:15.185Z,2552
2016-04-07T06:53:15.406Z,2400
2016-04-07T06:54:15.143Z,2420
2016-04-07T06:55:15.286Z,2656
2016-04-07T06:56:15.304Z,3920
2016-04-07T06:57:15.323Z,4696
2016-04-07T06:58:15.373Z,2632
2016-04-07T06:59:15.407Z,3608
2016-04-07T07:00:15.440Z,2900
2016-04-07T07:01:15.474Z,3428
2016-04-07T07:02:15.492Z,3600
2016-04-07T07:03:15.526Z,3276
2016-04-07T07:04:15.561Z,4396
2016-04-07T07:05:15.595Z,4672
2016-04-07T07:06:15.660Z,3468
2016-04-07T07:07:15.678Z,4620
2016-04-07T07:08:15.712Z,3668
2016-04-07T07:09:15.746Z,3236
2016-04-07T07:10:15.764Z,4544
2016-04-07T07:11:15.814Z,3624
2016-04-07T07:12:15.832Z,3752
2016-04-07T07:13:15.866Z,2740
2016-04-07T07:14:15.822Z,2208
2016-04-07T07:15:15.934Z,2848
2016-04-07T07:16:15.953Z,3224
2016-04-07T07:17:21.002Z,4276
2016-04-07T07:18:16.036Z,2852
2016-04-07T07:19:16.069Z,4516
2016-04-07T07:20:16.104Z,3796
2016-04-07T07:21:16.122Z,2788
2016-04-07T07:22:16.171Z,3000
2016-04-07T07:23:16.205Z,4892
2016-04-07T07:24:16.192Z,3868
2016-04-07T07:25:16.273Z,2924
2016-04-07T07:26:16.307Z,2672
2016-04-07T07:27:16.326Z,4720
2016-04-07T07:28:16.360Z,5000
2016-04-07T07:29:16.393Z,4252
2016-04-07T07:30:16.131Z,4808
2016-04-07T07:31:16.523Z,3908
2016-04-07T07:32:16.293Z,2948
2016-04-07T07:33:16.582Z,4680
2016-04-07T07:34:16.553Z,7268
2016-04-07T07:35:16.602Z,7056
2016-04-07T07:36:16.637Z,8548
2016-04-07T07:37:16.671Z,4316
2016-04-07T07:38:16.690Z,5244
2016-04-07T07:39:16.863Z,4272
2016-04-07T07:40:16.965Z,3972
2016-04-07T07:41:16.811Z,4292
2016-04-07T07:42:16.845Z,5864
2016-04-07T07:43:17.114Z,4368
2016-04-07T07:44:16.897Z,3480
2016-04-07T07:45:16.931Z,3444
2016-04-07T07:46:17.122Z,4908
2016-04-07T07:47:17.000Z,4764
2016-04-07T07:48:17.190Z,6900
2016-04-07T07:49:17.067Z,5136
2016-04-07T07:50:16.945Z,3584
2016-04-07T07:51:17.135Z,5988
2016-04-07T07:52:17.200Z,3496
2016-04-07T07:53:17.202Z,3272
2016-04-07T07:54:17.237Z,5332
2016-04-07T07:55:17.271Z,7136
2016-04-07T07:56:17.304Z,5120
2016-04-07T07:57:17.338Z,4016
2016-04-07T07:58:17.232Z,8172
2016-04-07T07:59:17.407Z,4060
2016-04-07T08:00:17.425Z,3988
2016-04-07T08:01:17.318Z,6672
2016-04-07T08:02:17.524Z,21280
2016-04-07T08:03:17.543Z,6420
2016-04-07T08:04:17.560Z,7588
2016-04-07T08:05:17.610Z,8912
2016-04-07T08:06:17.331Z,5680
2016-04-07T08:07:17.678Z,6628
2016-04-07T08:08:17.712Z,6924
2016-04-07T08:09:17.731Z,7140
2016-04-07T08:10:17.796Z,9096
2016-04-07T08:11:17.814Z,7664
2016-04-07T08:12:17.832Z,5688
2016-04-07T08:13:17.897Z,6020
2016-04-07T08:14:17.916Z,6424
2016-04-07T08:15:17.950Z,7544
2016-04-07T08:16:17.984Z,6404
2016-04-07T08:17:18.018Z,6172
2016-04-07T08:18:18.083Z,8376
2016-04-07T08:19:18.101Z,5944
2016-04-07T08:20:18.119Z,5696
2016-04-07T08:21:18.169Z,4336
2016-04-07T08:22:18.203Z,7984
2016-04-07T08:23:18.236Z,7440
2016-04-07T08:24:18.286Z,5932
2016-04-07T08:25:18.288Z,4096
2016-04-07T08:26:18.323Z,3588
2016-04-07T08:27:18.372Z,4756
2016-04-07T08:28:18.454Z,5472
2016-04-07T08:29:18.441Z,6356
2016-04-07T08:30:18.475Z,10008
2016-04-07T08:31:18.524Z,8912
2016-04-07T08:32:18.543Z,9264
2016-04-07T08:33:18.576Z,6164
2016-04-07T08:34:18.626Z,3900
2016-04-07T08:35:18.690Z,3152
2016-04-07T08:36:18.701Z,7728
2016-04-07T08:37:18.714Z,8660
2016-04-07T08:38:18.747Z,4240
2016-04-07T08:39:18.797Z,4820
2016-04-07T08:40:18.877Z,38080
2016-04-07T08:41:18.864Z,50144
2016-04-07T08:42:18.898Z,35872
2016-04-07T08:43:18.916Z,4244
2016-04-07T08:44:18.951Z,6168
2016-04-07T08:45:18.985Z,4468
2016-04-07T08:46:19.019Z,5492
2016-04-07T08:47:19.068Z,8192
2016-04-07T08:48:19.087Z,5092
2016-04-07T08:49:19.214Z,4496
2016-04-07T08:50:19.154Z,6208
2016-04-07T08:51:19.203Z,4952
2016-04-07T08:52:19.237Z,4288
2016-04-07T08:53:19.271Z,4484
2016-04-07T08:54:19.306Z,3640
2016-04-07T08:55:20.667Z,37984
2016-04-07T08:56:19.373Z,6824
2016-04-07T08:57:19.407Z,6400
2016-04-07T08:58:19.456Z,4816
2016-04-07T08:59:19.506Z,5336
2016-04-07T09:00:19.525Z,6116
2016-04-07T09:01:19.372Z,5708
2016-04-07T09:02:19.578Z,6260
2016-04-07T09:03:19.627Z,35744
2016-04-07T09:04:19.661Z,36896
2016-04-07T09:05:19.678Z,8932
2016-04-07T09:06:19.713Z,40992
2016-04-07T09:07:20.793Z,5704
2016-04-07T09:08:19.796Z,22624
2016-04-07T09:09:19.830Z,8284
2016-04-07T09:10:19.880Z,7520
2016-04-07T09:11:19.898Z,6720
2016-04-07T09:12:19.933Z,5352
2016-04-07T09:13:19.982Z,6220
2016-04-07T09:14:20.000Z,5732
2016-04-07T09:15:20.034Z,6016
2016-04-07T09:16:20.068Z,6248
2016-04-07T09:17:20.118Z,6172
2016-04-07T09:18:20.167Z,8832
2016-04-07T09:19:20.201Z,7220
2016-04-07T09:20:20.234Z,8400
2016-04-07T09:21:20.285Z,8060
2016-04-07T09:22:20.342Z,5992
2016-04-07T09:23:20.412Z,5004
2016-04-07T09:24:20.483Z,6200
2016-04-07T09:25:20.381Z,6280
2016-04-07T09:26:20.623Z,7968
2016-04-07T09:27:20.694Z,6556
2016-04-07T09:28:20.742Z,6684
2016-04-07T09:29:20.804Z,7528
2016-04-07T09:30:20.836Z,7112
2016-04-07T09:31:20.899Z,6160
2016-04-07T09:32:20.924Z,5380
2016-04-07T09:33:20.978Z,6152
2016-04-07T09:34:21.016Z,4488
2016-04-07T09:35:20.914Z,2944
2016-04-07T09:36:21.110Z,2684
2016-04-07T09:37:21.146Z,3192
2016-04-07T09:38:21.026Z,5220
2016-04-07T09:39:21.203Z,4888
2016-04-07T09:40:21.239Z,3420
2016-04-07T09:41:21.305Z,2500
2016-04-07T09:42:21.309Z,2376
2016-04-07T09:43:21.375Z,2536
2016-04-07T09:44:21.410Z,3532
2016-04-07T09:45:21.429Z,3944
2016-04-07T09:46:21.447Z,4456
2016-04-07T09:47:21.529Z,3564
2016-04-07T09:48:21.563Z,3424
2016-04-07T09:49:21.581Z,3752
2016-04-07T09:50:21.616Z,3868
2016-04-07T09:51:21.633Z,6092
2016-04-07T09:52:21.699Z,7216
2016-04-07T09:53:21.716Z,6536
2016-04-07T09:54:21.766Z,6564
2016-04-07T09:55:21.785Z,7584
2016-04-07T09:56:21.835Z,7276
2016-04-07T09:57:21.868Z,6820
2016-04-07T09:58:21.887Z,6352
2016-04-07T09:59:21.952Z,6420
2016-04-07T10:00:21.970Z,5900
2016-04-07T10:01:22.020Z,5572
2016-04-07T10:02:22.022Z,4592
2016-04-07T10:03:22.072Z,4456
2016-04-07T10:04:22.090Z,4632
2016-04-07T10:05:22.140Z,4884
2016-04-07T10:06:22.174Z,4632
2016-04-07T10:07:22.224Z,5676
2016-04-07T10:08:22.288Z,5432
2016-04-07T10:09:22.275Z,6244
2016-04-07T10:10:22.309Z,6456
2016-04-07T10:11:22.344Z,7320
2016-04-07T10:12:22.377Z,7468
2016-04-07T10:13:22.427Z,6752
2016-04-07T10:14:22.461Z,6172
2016-04-07T10:15:22.494Z,5704
2016-04-07T10:16:22.514Z,4760
2016-04-07T10:17:22.578Z,4116
2016-04-07T10:18:22.597Z,5676
2016-04-07T10:19:22.647Z,5736
2016-04-07T10:20:22.664Z,5532
2016-04-07T10:21:22.699Z,4528
2016-04-07T10:22:22.732Z,4024
2016-04-07T10:23:22.767Z,3372
2016-04-07T10:24:22.800Z,3156
2016-04-07T10:25:22.850Z,2836
2016-04-07T10:26:22.853Z,2592
2016-04-07T10:27:22.918Z,2864
2016-04-07T10:28:22.936Z,2580
2016-04-07T10:29:22.985Z,2200
2016-04-07T10:30:23.082Z,2120
2016-04-07T10:31:23.053Z,2056
2016-04-07T10:32:23.087Z,2256
2016-04-07T10:33:23.153Z,2204
2016-04-07T10:34:23.562Z,2132
2016-04-07T10:35:23.205Z,2720
2016-04-07T10:36:23.207Z,3448
2016-04-07T10:37:23.257Z,3996
2016-04-07T10:38:23.306Z,4216
2016-04-07T10:39:23.372Z,3472
2016-04-07T10:40:23.421Z,2868
2016-04-07T10:41:23.392Z,2920
2016-04-07T10:42:23.442Z,3404
2016-04-07T10:43:23.476Z,3428
2016-04-07T10:44:23.526Z,3744
2016-04-07T10:45:23.576Z,3036
2016-04-07T10:46:23.578Z,2736
2016-04-07T10:47:23.612Z,3808
2016-04-07T10:48:23.662Z,4252
2016-04-07T10:49:23.696Z,4332
2016-04-07T10:50:23.574Z,3980
2016-04-07T10:51:23.748Z,4460
2016-04-07T10:52:23.783Z,3852
2016-04-07T10:53:23.816Z,4320
2016-04-07T10:54:23.850Z,4220
2016-04-07T10:55:23.883Z,5296
2016-04-07T10:56:23.933Z,5152
2016-04-07T10:57:23.968Z,5400
2016-04-07T10:58:23.985Z,5428
2016-04-07T10:59:24.019Z,5908
2016-04-07T11:00:24.084Z,6088
2016-04-07T11:01:24.134Z,5524
2016-04-07T11:02:24.121Z,4516
2016-04-07T11:03:24.187Z,3660
2016-04-07T11:04:24.205Z,3536
2016-04-07T11:05:24.239Z,4184
2016-04-07T11:06:24.273Z,5036
2016-04-07T11:07:24.306Z,6124
2016-04-07T11:08:24.340Z,6428
2016-04-07T11:09:24.389Z,6516
2016-04-07T11:10:24.423Z,5784
2016-04-07T11:11:24.473Z,5356
2016-04-07T11:12:24.492Z,5032
2016-04-07T11:13:24.526Z,6208
2016-04-07T11:14:24.576Z,5820
2016-04-07T11:15:24.594Z,5200
2016-04-07T11:16:24.628Z,5032
2016-04-07T11:17:24.677Z,4700
2016-04-07T11:18:24.711Z,4856
2016-04-07T11:19:24.745Z,5772
2016-04-07T11:20:24.780Z,4904
2016-04-07T11:21:24.814Z,4852
2016-04-07T11:22:24.831Z,5600
2016-04-07T11:23:24.881Z,6460
2016-04-07T11:24:24.915Z,6068
2016-04-07T11:25:24.949Z,5952
2016-04-07T11:26:24.982Z,4984
2016-04-07T11:27:25.016Z,5896
2016-04-07T11:28:25.066Z,6196
2016-04-07T11:29:25.100Z,5640
2016-04-07T11:30:25.135Z,5780
2016-04-07T11:31:25.168Z,6408
2016-04-07T11:32:25.202Z,6184
2016-04-07T11:33:25.236Z,6020
2016-04-07T11:34:25.301Z,5868
2016-04-07T11:35:25.320Z,5856
2016-04-07T11:36:25.354Z,5404
2016-04-07T11:37:25.387Z,5392
2016-04-07T11:38:25.421Z,5028
2016-04-07T11:39:25.456Z,5028
2016-04-07T11:40:25.474Z,5300
2016-04-07T11:41:25.539Z,5612
2016-04-07T11:42:25.557Z,6320
2016-04-07T11:43:25.607Z,6540
2016-04-07T11:44:25.625Z,5120
2016-04-07T11:45:25.659Z,3712
2016-04-07T11:46:25.709Z,2456
2016-04-07T11:47:25.742Z,2716
2016-04-07T11:48:25.761Z,2756
2016-04-07T11:49:25.795Z,3400
2016-04-07T11:50:25.875Z,2728
2016-04-07T11:51:25.863Z,2612
2016-04-07T11:52:25.959Z,2836
2016-04-07T11:53:25.930Z,2976
2016-04-07T11:54:25.980Z,3440
2016-04-07T11:55:26.374Z,3612
2016-04-07T11:56:26.064Z,3864
2016-04-07T11:57:26.097Z,3104
2016-04-07T11:58:26.132Z,2960
2016-04-07T11:59:26.166Z,3072
2016-04-07T12:00:26.199Z,2884
2016-04-07T12:01:26.233Z,2960
2016-04-07T12:02:26.283Z,2864
2016-04-07T12:03:26.301Z,2684
2016-04-07T12:04:26.351Z,2904
2016-04-07T12:05:26.369Z,2932
2016-04-07T12:06:26.403Z,2828
2016-04-07T12:07:26.452Z,2916
2016-04-07T12:08:26.502Z,3128
2016-04-07T12:09:26.504Z,2676
2016-04-07T12:10:26.601Z,3048
2016-04-07T12:11:26.587Z,3692
2016-04-07T12:12:26.637Z,4028
2016-04-07T12:13:26.656Z,4444
2016-04-07T12:14:26.690Z,4888
2016-04-07T12:15:26.756Z,5200
2016-04-07T12:16:26.758Z,5520
2016-04-07T12:17:26.792Z,4352
2016-04-07T12:18:27.372Z,4240
2016-04-07T12:19:26.875Z,3620
2016-04-07T12:20:26.941Z,4184
2016-04-07T12:21:26.958Z,4776
2016-04-07T12:22:26.977Z,4072
2016-04-07T12:23:27.010Z,3196
2016-04-07T12:24:27.044Z,2652
2016-04-07T12:25:27.016Z,2416
2016-04-07T12:26:27.128Z,2340
2016-04-07T12:27:27.163Z,2380
2016-04-07T12:28:27.196Z,2456
2016-04-07T12:29:27.230Z,2480
2016-04-07T12:30:27.264Z,2476
2016-04-07T12:31:27.298Z,2460
2016-04-07T12:32:27.332Z,2960
2016-04-07T12:33:27.365Z,2140
2016-04-07T12:34:27.399Z,2764
2016-04-07T12:35:27.449Z,3532
2016-04-07T12:36:27.484Z,5036
2016-04-07T12:37:27.533Z,5332
2016-04-07T12:38:27.551Z,5032
2016-04-07T12:39:27.585Z,4352
2016-04-07T12:40:28.290Z,3928
2016-04-07T12:41:27.684Z,3460
2016-04-07T12:42:27.687Z,3012
2016-04-07T12:43:27.721Z,2264
2016-04-07T12:44:27.787Z,2440
2016-04-07T12:45:27.820Z,2928
2016-04-07T12:46:27.839Z,4072
2016-04-07T12:47:27.981Z,4692
2016-04-07T12:48:27.922Z,4188
2016-04-07T12:49:27.939Z,4440
2016-04-07T12:50:27.989Z,3936
2016-04-07T12:51:28.086Z,3236
2016-04-07T12:52:28.057Z,3044
2016-04-07T12:53:28.108Z,3456
2016-04-07T12:54:28.125Z,4236
2016-04-07T12:55:28.285Z,4028
2016-04-07T12:56:28.212Z,3484
2016-04-07T12:57:28.230Z,3700
2016-04-07T12:58:28.264Z,4424
2016-04-07T12:59:28.298Z,4924
2016-04-07T13:00:28.332Z,4736
2016-04-07T13:01:28.382Z,4844
2016-04-07T13:02:28.416Z,4088
2016-04-07T13:03:28.449Z,3980
2016-04-07T13:04:28.483Z,4180
2016-04-07T13:05:28.533Z,3644
2016-04-07T13:06:28.582Z,3880
2016-04-07T13:07:28.585Z,4140
2016-04-07T13:08:28.635Z,3776
2016-04-07T13:09:28.668Z,3404
2016-04-07T13:10:28.906Z,3192
2016-04-07T13:11:28.737Z,3112
2016-04-07T13:12:28.786Z,3804
2016-04-07T13:13:28.805Z,4384
2016-04-07T13:14:28.854Z,4548
2016-04-07T13:15:28.873Z,4980
2016-04-07T13:16:28.922Z,5780
2016-04-07T13:17:28.956Z,4644
2016-04-07T13:18:28.989Z,3348
2016-04-07T13:19:29.023Z,2628
2016-04-07T13:20:29.073Z,2396
2016-04-07T13:21:29.091Z,2104
2016-04-07T13:22:29.126Z,2256
2016-04-07T13:23:29.175Z,2644
2016-04-07T13:24:29.209Z,3048
2016-04-07T13:25:29.181Z,3244
2016-04-07T13:26:29.308Z,3292
2016-04-07T13:27:29.300Z,2968
2016-04-07T13:28:29.349Z,2860
2016-04-07T13:29:29.399Z,2920
2016-04-07T13:30:29.433Z,2780
2016-04-07T13:31:29.311Z,2808
2016-04-07T13:32:29.502Z,3016
2016-04-07T13:33:29.535Z,3740
2016-04-07T13:34:29.569Z,4636
2016-04-07T13:35:29.603Z,4616
2016-04-07T13:36:29.637Z,5260
2016-04-07T13:37:29.701Z,4760
2016-04-07T13:38:29.720Z,3756
2016-04-07T13:39:29.754Z,2628
2016-04-07T13:40:29.804Z,2188
2016-04-07T13:41:29.823Z,1956
2016-04-07T13:42:29.856Z,1988
2016-04-07T13:43:29.906Z,2600
2016-04-07T13:44:29.940Z,2200
2016-04-07T13:45:29.958Z,2684
2016-04-07T13:46:30.008Z,2756
2016-04-07T13:47:30.041Z,3132